createdAt,value
2023-05-16T00:02:06.633Z,15.06
2023-05-16T00:04:35.541Z,14.99
2023-05-16T00:07:06.117Z,15.00
2023-05-16T00:09:34.469Z,14.99
2023-05-16T00:12:02.450Z,14.98
2023-05-16T00:14:32.019Z,14.97
2023-05-16T00:17:01.141Z,14.99
2023-05-16T00:19:30.236Z,14.96
2023-05-16T00:21:58.201Z,14.94
2023-05-16T00:24:26.809Z,14.92
2023-05-16T00:26:57.343Z,14.91
2023-05-16T00:29:26.275Z,14.94
2023-05-16T00:31:56.406Z,14.89
2023-05-16T00:34:24.549Z,14.87
2023-05-16T00:36:55.595Z,14.83
2023-05-16T00:39:24.564Z,14.82
2023-05-16T00:41:52.689Z,14.81
2023-05-16T00:44:21.613Z,14.79
2023-05-16T00:46:50.500Z,14.74
2023-05-16T00:49:21.822Z,14.73
2023-05-16T00:51:50.149Z,14.69
2023-05-16T00:54:21.194Z,14.66
2023-05-16T00:56:49.694Z,14.61
2023-05-16T00:59:19.832Z,14.57
2023-05-16T01:01:49.123Z,14.53
2023-05-16T01:04:19.782Z,14.47
2023-05-16T01:06:49.601Z,14.43
2023-05-16T01:09:17.836Z,14.40
2023-05-16T01:14:52.644Z,14.27
2023-05-16T01:17:24.933Z,14.24
2023-05-16T01:20:06.310Z,14.20
2023-05-16T01:22:54.818Z,14.15
2023-05-16T01:25:43.589Z,14.10
2023-05-16T01:28:27.233Z,14.06
2023-05-16T01:30:56.339Z,14.01
2023-05-16T01:33:30.103Z,13.95
2023-05-16T01:36:15.561Z,13.90
2023-05-16T01:39:02.688Z,13.85
2023-05-16T01:41:41.869Z,13.84
2023-05-16T01:44:19.120Z,13.77
2023-05-16T01:46:52.505Z,13.78
2023-05-16T01:49:28.215Z,13.78
2023-05-16T01:52:01.524Z,13.77
2023-05-16T01:54:34.542Z,13.72
2023-05-16T01:57:06.062Z,13.68
2023-05-16T01:59:37.208Z,13.65
2023-05-16T02:02:05.570Z,13.62
2023-05-16T02:04:37.124Z,13.57
2023-05-16T02:07:05.642Z,13.51
2023-05-16T02:09:34.447Z,13.44
2023-05-16T02:12:05.254Z,13.40
2023-05-16T02:14:37.503Z,13.36
2023-05-16T02:17:06.190Z,13.30
2023-05-16T02:19:37.944Z,13.24
2023-05-16T02:22:09.137Z,13.20
2023-05-16T02:24:37.768Z,13.16
2023-05-16T02:27:07.668Z,13.13
2023-05-16T02:29:42.752Z,13.07
2023-05-16T02:32:10.771Z,13.06
2023-05-16T02:34:39.956Z,13.02
2023-05-16T02:37:13.324Z,12.99
2023-05-16T02:39:44.749Z,12.91
2023-05-16T02:42:14.361Z,12.91
2023-05-16T02:44:44.741Z,12.88
2023-05-16T02:47:13.137Z,12.89
2023-05-16T02:49:43.520Z,12.86
2023-05-16T02:52:15.612Z,12.79
2023-05-16T02:54:43.874Z,12.75
2023-05-16T02:57:13.135Z,12.73
2023-05-16T02:59:41.312Z,12.71
2023-05-16T03:02:13.222Z,12.61
2023-05-16T03:04:41.985Z,12.57
2023-05-16T03:07:10.418Z,12.55
2023-05-16T03:09:45.083Z,12.51
2023-05-16T03:12:15.467Z,12.45
2023-05-16T03:14:43.456Z,12.44
2023-05-16T03:17:14.817Z,12.43
2023-05-16T03:19:43.054Z,12.45
2023-05-16T03:22:13.342Z,12.44
2023-05-16T03:24:47.207Z,12.44
2023-05-16T03:27:16.020Z,12.43
2023-05-16T03:29:47.652Z,12.44
2023-05-16T03:32:18.684Z,12.45
2023-05-16T03:34:48.856Z,12.49
2023-05-16T03:37:19.171Z,12.53
2023-05-16T03:39:49.415Z,12.58
2023-05-16T03:42:20.588Z,12.60
2023-05-16T03:44:51.053Z,12.64
2023-05-16T03:47:21.474Z,12.65
2023-05-16T03:49:50.496Z,12.68
2023-05-16T03:52:19.189Z,12.71
2023-05-16T03:54:47.652Z,12.75
2023-05-16T03:57:16.110Z,12.76
2023-05-16T03:59:44.797Z,12.81
2023-05-16T04:02:17.428Z,12.82
2023-05-16T04:04:48.739Z,12.82
2023-05-16T04:07:18.596Z,12.89
2023-05-16T04:09:48.088Z,12.91
2023-05-16T04:12:17.056Z,12.92
2023-05-16T04:14:44.951Z,12.90
2023-05-16T04:17:12.910Z,12.90
2023-05-16T04:19:43.383Z,12.90
2023-05-16T04:22:14.322Z,12.92
2023-05-16T04:24:43.681Z,12.94
2023-05-16T04:27:12.077Z,13.01
2023-05-16T04:29:40.886Z,13.04
2023-05-16T04:32:12.657Z,13.08
2023-05-16T04:34:44.205Z,13.14
2023-05-16T04:37:14.231Z,13.20
2023-05-16T04:39:44.550Z,13.25
2023-05-16T04:42:15.281Z,13.29
2023-05-16T04:44:44.325Z,13.33
2023-05-16T04:47:12.611Z,13.39
2023-05-16T04:49:46.484Z,13.45
2023-05-16T04:52:15.885Z,13.54
2023-05-16T04:54:44.620Z,13.58
2023-05-16T04:57:14.542Z,13.63
2023-05-16T04:59:42.932Z,13.68
2023-05-16T05:02:13.188Z,13.77
2023-05-16T05:04:43.092Z,13.81
2023-05-16T05:07:14.184Z,13.87
2023-05-16T05:09:44.914Z,13.91
2023-05-16T05:12:13.602Z,13.94
2023-05-16T05:14:42.528Z,14.00
2023-05-16T05:17:11.049Z,14.05
2023-05-16T05:19:40.925Z,14.08
2023-05-16T05:22:08.912Z,14.12
2023-05-16T05:24:37.240Z,14.17
2023-05-16T05:27:07.542Z,14.19
2023-05-16T05:29:38.153Z,14.22
2023-05-16T05:32:09.284Z,14.26
2023-05-16T05:34:38.023Z,14.26
2023-05-16T05:37:07.123Z,14.26
2023-05-16T05:39:35.121Z,14.24
2023-05-16T05:42:03.604Z,14.20
2023-05-16T05:44:33.662Z,14.21
2023-05-16T05:47:05.871Z,14.25
2023-05-16T05:49:35.371Z,14.20
2023-05-16T05:52:07.858Z,14.18
2023-05-16T05:54:36.117Z,14.14
2023-05-16T05:57:04.235Z,14.16
2023-05-16T05:59:34.021Z,14.19
2023-05-16T06:02:02.703Z,14.20
2023-05-16T06:04:30.690Z,14.22
2023-05-16T06:06:59.140Z,14.36
2023-05-16T06:09:28.030Z,14.41
2023-05-16T06:11:56.587Z,14.47
2023-05-16T06:14:24.845Z,14.36
2023-05-16T06:16:55.621Z,14.41
2023-05-16T06:19:25.316Z,14.51
2023-05-16T06:21:53.484Z,14.39
2023-05-16T06:24:21.415Z,14.36
2023-05-16T06:26:52.682Z,14.38
2023-05-16T06:29:20.994Z,14.41
2023-05-16T06:31:50.484Z,14.53
2023-05-16T06:34:20.637Z,14.64
2023-05-16T06:36:48.824Z,14.70
2023-05-16T06:39:16.868Z,14.77
2023-05-16T06:41:47.038Z,14.81
2023-05-16T06:44:18.343Z,14.84
2023-05-16T06:46:46.484Z,14.85
2023-05-16T06:49:15.983Z,14.88
2023-05-16T06:51:46.927Z,14.91
2023-05-16T06:54:15.126Z,14.86
2023-05-16T06:56:44.241Z,14.86
2023-05-16T06:59:12.787Z,14.78
2023-05-16T07:01:42.699Z,14.83
2023-05-16T07:04:10.929Z,14.81
2023-05-16T07:06:39.413Z,14.85
2023-05-16T07:09:09.439Z,14.89
2023-05-16T07:11:39.808Z,14.89
2023-05-16T07:14:08.405Z,14.90
2023-05-16T07:16:39.470Z,14.99
2023-05-16T07:19:09.102Z,15.11
2023-05-16T07:21:37.588Z,15.13
2023-05-16T07:24:11.824Z,15.30
2023-05-16T07:26:40.333Z,15.30
2023-05-16T07:29:08.471Z,15.36
2023-05-16T07:31:36.900Z,15.38
2023-05-16T07:34:11.126Z,15.42
2023-05-16T07:36:39.560Z,15.38
2023-05-16T07:39:08.141Z,15.32
2023-05-16T07:41:41.265Z,15.16
2023-05-16T07:44:09.751Z,15.15
2023-05-16T07:46:37.973Z,15.09
2023-05-16T07:49:08.022Z,15.04
2023-05-16T07:51:36.601Z,15.00
2023-05-16T07:54:07.389Z,14.97
2023-05-16T07:56:36.503Z,14.96
2023-05-16T07:59:07.366Z,14.92
2023-05-16T08:01:35.824Z,14.86
2023-05-16T08:04:07.653Z,14.88
2023-05-16T08:06:38.332Z,14.81
2023-05-16T08:09:06.907Z,14.73
2023-05-16T08:11:35.259Z,14.54
2023-05-16T08:14:06.320Z,14.52
2023-05-16T08:16:37.034Z,14.41
2023-05-16T08:19:07.256Z,14.17
2023-05-16T08:21:36.150Z,13.98
2023-05-16T08:24:05.659Z,13.92
2023-05-16T08:26:33.654Z,13.83
2023-05-16T08:29:01.800Z,13.77
2023-05-16T08:31:35.775Z,13.72
2023-05-16T08:34:06.428Z,13.73
2023-05-16T08:36:36.243Z,13.83
2023-05-16T08:39:04.964Z,13.77
2023-05-16T08:41:34.482Z,13.82
2023-05-16T08:44:04.940Z,13.81
2023-05-16T08:46:38.378Z,13.74
2023-05-16T08:49:08.555Z,13.83
2023-05-16T08:51:40.474Z,13.89
2023-05-16T08:54:14.324Z,13.90
2023-05-16T08:56:43.352Z,13.91
2023-05-16T08:59:12.538Z,13.89
2023-05-16T09:01:42.232Z,14.16
2023-05-16T09:04:11.558Z,14.17
2023-05-16T09:06:41.648Z,14.16
2023-05-16T09:09:12.960Z,14.12
2023-05-16T09:11:41.523Z,14.11
2023-05-16T09:14:10.618Z,14.08
2023-05-16T09:16:44.521Z,14.08
2023-05-16T09:19:14.730Z,14.12
2023-05-16T09:21:43.835Z,14.20
2023-05-16T09:24:14.816Z,14.26
2023-05-16T09:26:46.368Z,14.28
2023-05-16T09:31:51.022Z,14.35
2023-05-16T09:34:27.340Z,14.36
2023-05-16T09:36:56.283Z,14.44
2023-05-16T09:39:28.589Z,14.46
2023-05-16T09:41:56.947Z,14.46
2023-05-16T09:44:25.784Z,14.48
2023-05-16T09:46:56.757Z,14.58
2023-05-16T09:49:25.297Z,14.65
2023-05-16T09:51:54.967Z,14.79
2023-05-16T09:54:33.015Z,14.96
2023-05-16T09:57:03.206Z,15.07
2023-05-16T09:59:31.954Z,15.24
2023-05-16T10:02:00.659Z,15.40
2023-05-16T10:04:28.816Z,15.46
2023-05-16T10:06:58.766Z,15.63
2023-05-16T10:09:27.342Z,15.88
2023-05-16T10:11:57.629Z,16.12
2023-05-16T10:14:27.495Z,16.25
2023-05-16T10:16:57.618Z,16.41
2023-05-16T10:19:27.456Z,16.64
2023-05-16T10:22:01.079Z,16.87
2023-05-16T10:24:32.620Z,17.03
2023-05-16T10:27:01.300Z,17.26
2023-05-16T10:29:35.224Z,17.46
2023-05-16T10:32:09.397Z,17.55
2023-05-16T10:34:37.784Z,17.59
2023-05-16T10:37:08.479Z,17.57
2023-05-16T10:39:37.635Z,17.65
2023-05-16T10:42:06.975Z,17.84
2023-05-16T10:44:34.991Z,17.98
2023-05-16T10:47:05.497Z,17.96
2023-05-16T10:49:33.794Z,17.87
2023-05-16T10:52:08.834Z,17.74
2023-05-16T10:54:39.381Z,17.62
2023-05-16T10:57:10.593Z,17.58
2023-05-16T10:59:43.034Z,17.64
2023-05-16T11:02:25.176Z,17.55
2023-05-16T11:04:54.119Z,17.55
2023-05-16T11:07:25.569Z,17.57
2023-05-16T11:10:09.521Z,17.69
2023-05-16T11:12:46.326Z,17.83
2023-05-16T11:15:23.175Z,17.71
2023-05-16T11:18:06.303Z,17.74
2023-05-16T11:20:36.038Z,17.80
2023-05-16T11:23:27.531Z,17.72
2023-05-16T11:25:58.333Z,17.59
2023-05-16T11:28:27.480Z,17.42
2023-05-16T11:30:57.620Z,17.20
2023-05-16T11:33:27.720Z,17.21
2023-05-16T11:36:15.120Z,17.38
2023-05-16T11:38:45.968Z,17.36
2023-05-16T11:41:16.551Z,17.32
2023-05-16T11:43:46.903Z,17.51
2023-05-16T11:46:16.205Z,17.59
2023-05-16T11:48:47.437Z,17.54
2023-05-16T11:51:18.781Z,17.48
2023-05-16T11:53:49.742Z,17.48
2023-05-16T11:56:18.473Z,17.43
2023-05-16T11:58:47.585Z,17.37
2023-05-16T12:01:17.439Z,17.39
2023-05-16T12:03:56.162Z,17.39
2023-05-16T12:06:24.911Z,17.47
2023-05-16T12:08:54.078Z,17.57
2023-05-16T12:11:24.903Z,17.69
2023-05-16T12:13:59.021Z,17.77
2023-05-16T12:16:28.828Z,17.92
2023-05-16T12:18:58.610Z,18.12
2023-05-16T12:21:27.056Z,18.09
2023-05-16T12:23:58.533Z,18.25
2023-05-16T12:26:31.035Z,18.45
2023-05-16T12:29:00.924Z,18.60
2023-05-16T12:31:32.473Z,18.78
2023-05-16T12:34:01.305Z,18.97
2023-05-16T12:36:33.906Z,19.21
2023-05-16T12:39:05.779Z,19.44
2023-05-16T12:41:42.504Z,19.62
2023-05-16T12:44:16.974Z,19.85
2023-05-16T12:46:50.582Z,19.95
2023-05-16T12:49:21.662Z,20.06
2023-05-16T12:51:51.431Z,20.23
2023-05-16T12:54:22.959Z,20.28
2023-05-16T12:56:51.459Z,20.32
2023-05-16T12:59:20.466Z,20.50
2023-05-16T13:01:49.121Z,20.59
2023-05-16T13:04:20.185Z,20.57
2023-05-16T13:09:21.933Z,20.53
2023-05-16T13:11:50.556Z,20.37
2023-05-16T13:14:18.665Z,20.21
2023-05-16T13:16:46.863Z,20.35
2023-05-16T13:19:19.894Z,20.71
2023-05-16T13:21:48.297Z,21.10
2023-05-16T13:24:17.321Z,21.16
2023-05-16T13:26:46.739Z,20.87
2023-05-16T13:29:16.159Z,20.62
2023-05-16T13:31:44.763Z,20.49
2023-05-16T13:34:12.991Z,20.66
2023-05-16T13:36:53.040Z,21.02
2023-05-16T13:39:23.512Z,21.27
2023-05-16T13:41:53.263Z,21.52
2023-05-16T13:44:22.521Z,21.41
2023-05-16T13:46:50.693Z,21.32
2023-05-16T13:49:19.315Z,21.16
2023-05-16T13:51:48.257Z,21.27
2023-05-16T13:54:17.146Z,21.57
2023-05-16T13:56:45.952Z,21.54
2023-05-16T13:59:20.780Z,21.37
2023-05-16T14:01:56.321Z,21.24
2023-05-16T14:04:24.574Z,21.45
2023-05-16T14:06:53.676Z,21.86
2023-05-16T14:09:21.906Z,22.22
2023-05-16T14:11:50.031Z,22.42
2023-05-16T14:14:19.793Z,22.69
2023-05-16T14:16:50.522Z,22.76
2023-05-16T14:19:19.595Z,22.71
2023-05-16T14:21:47.922Z,22.94
2023-05-16T14:24:16.208Z,23.18
2023-05-16T14:26:46.731Z,23.15
2023-05-16T14:29:14.854Z,23.04
2023-05-16T14:31:44.364Z,23.10
2023-05-16T14:34:13.059Z,23.17
2023-05-16T14:36:41.307Z,22.93
2023-05-16T14:39:09.651Z,23.15
2023-05-16T14:41:37.804Z,23.49
2023-05-16T14:44:06.504Z,23.81
2023-05-16T14:46:34.916Z,23.76
2023-05-16T14:49:04.967Z,23.79
2023-05-16T14:51:33.359Z,23.58
2023-05-16T14:54:02.634Z,23.26
2023-05-16T14:56:31.920Z,23.62
2023-05-16T14:59:02.523Z,23.96
2023-05-16T15:01:30.702Z,23.94
2023-05-16T15:03:58.585Z,24.29
2023-05-16T15:06:28.434Z,24.30
2023-05-16T15:08:56.773Z,24.53
2023-05-16T15:11:24.736Z,24.67
2023-05-16T15:13:52.626Z,25.21
2023-05-16T15:16:20.631Z,25.62
2023-05-16T15:18:48.928Z,25.63
2023-05-16T15:21:17.044Z,27.33
2023-05-16T15:23:46.968Z,26.76
2023-05-16T15:26:18.466Z,27.57
2023-05-16T15:28:46.569Z,29.34
2023-05-16T15:31:14.485Z,30.74
2023-05-16T15:33:48.103Z,31.84
2023-05-16T15:36:16.682Z,32.81
2023-05-16T15:38:48.415Z,33.54
2023-05-16T15:41:31.943Z,34.47
2023-05-16T15:44:06.362Z,34.94
2023-05-16T15:46:34.571Z,35.78
2023-05-16T15:49:02.608Z,36.81
2023-05-16T15:51:33.585Z,37.33
2023-05-16T15:54:03.111Z,38.51
2023-05-16T15:56:31.335Z,38.77
2023-05-16T15:59:01.795Z,37.85
2023-05-16T16:01:29.808Z,38.10
2023-05-16T16:04:00.822Z,39.00
2023-05-16T16:06:31.417Z,40.00
2023-05-16T16:08:59.422Z,40.68
2023-05-16T16:11:29.048Z,40.89
2023-05-16T16:13:57.009Z,41.44
2023-05-16T16:16:25.348Z,42.12
2023-05-16T16:18:55.744Z,42.38
2023-05-16T16:21:27.007Z,42.77
2023-05-16T16:23:59.298Z,41.61
2023-05-16T16:26:29.287Z,40.93
2023-05-16T16:28:57.743Z,42.16
2023-05-16T16:31:27.036Z,42.30
2023-05-16T16:33:56.098Z,41.71
2023-05-16T16:36:26.968Z,42.55
2023-05-16T16:38:57.082Z,42.84
2023-05-16T16:41:25.224Z,43.02
2023-05-16T16:43:54.502Z,42.35
2023-05-16T16:46:23.265Z,41.38
2023-05-16T16:48:53.051Z,39.34
2023-05-16T16:51:21.562Z,37.90
2023-05-16T16:53:49.976Z,38.04
2023-05-16T16:56:18.530Z,38.91
2023-05-16T16:58:46.484Z,39.18
2023-05-16T17:01:17.431Z,38.66
2023-05-16T17:03:46.614Z,37.30
2023-05-16T17:06:14.804Z,35.72
2023-05-16T17:08:43.427Z,34.16
2023-05-16T17:11:11.474Z,32.66
2023-05-16T17:13:41.862Z,31.87
2023-05-16T17:16:11.429Z,31.08
2023-05-16T17:18:41.047Z,30.28
2023-05-16T17:21:12.479Z,29.47
2023-05-16T17:23:43.169Z,28.94
2023-05-16T17:26:13.442Z,28.48
2023-05-16T17:28:41.705Z,28.01
2023-05-16T17:31:10.997Z,27.62
2023-05-16T17:33:41.549Z,26.95
2023-05-16T17:36:15.857Z,26.45
2023-05-16T17:38:43.988Z,25.77
2023-05-16T17:41:13.363Z,24.90
2023-05-16T17:43:44.611Z,24.36
2023-05-16T17:46:14.423Z,23.72
2023-05-16T17:48:49.850Z,23.18
2023-05-16T17:51:18.390Z,22.74
2023-05-16T17:53:50.362Z,22.37
2023-05-16T17:56:18.712Z,21.98
2023-05-16T17:58:47.471Z,21.52
2023-05-16T18:01:19.838Z,21.28
2023-05-16T18:03:51.666Z,20.81
2023-05-16T18:06:22.048Z,20.45
2023-05-16T18:08:50.180Z,20.26
2023-05-16T18:11:18.735Z,20.00
2023-05-16T18:13:54.215Z,19.76
2023-05-16T18:16:23.520Z,19.57
2023-05-16T18:18:54.544Z,19.19
2023-05-16T18:21:22.488Z,19.04
2023-05-16T18:23:50.650Z,18.87
2023-05-16T18:26:19.297Z,18.66
2023-05-16T18:28:48.623Z,18.48
2023-05-16T18:31:17.026Z,18.32
2023-05-16T18:33:45.527Z,18.16
2023-05-16T18:36:15.192Z,18.03
2023-05-16T18:38:45.905Z,17.88
2023-05-16T18:41:14.368Z,17.80
2023-05-16T18:43:42.908Z,17.65
2023-05-16T18:46:11.765Z,17.52
2023-05-16T18:48:41.295Z,17.40
2023-05-16T18:51:09.630Z,17.24
2023-05-16T18:53:39.155Z,17.11
2023-05-16T18:56:12.466Z,16.92
2023-05-16T18:58:40.970Z,16.76
2023-05-16T19:01:11.915Z,16.62
2023-05-16T19:03:39.907Z,16.50
2023-05-16T19:06:10.686Z,16.38
2023-05-16T19:08:47.627Z,16.27
2023-05-16T19:11:19.098Z,16.17
2023-05-16T19:13:47.853Z,16.04
2023-05-16T19:16:16.250Z,15.95
2023-05-16T19:18:44.754Z,15.88
2023-05-16T19:21:14.265Z,15.81
2023-05-16T19:23:45.554Z,15.75
2023-05-16T19:26:13.741Z,15.69
2023-05-16T19:28:42.695Z,15.60
2023-05-16T19:31:11.098Z,15.45
2023-05-16T19:33:39.709Z,15.37
2023-05-16T19:36:08.848Z,15.23
2023-05-16T19:38:39.386Z,15.18
2023-05-16T19:41:08.917Z,15.11
2023-05-16T19:43:37.013Z,15.00
2023-05-16T19:46:07.118Z,14.89
2023-05-16T19:48:35.607Z,14.74
2023-05-16T19:51:04.410Z,14.64
2023-05-16T19:53:32.714Z,14.55
2023-05-16T19:56:00.862Z,14.45
2023-05-16T19:58:30.472Z,14.31
2023-05-16T20:00:58.648Z,14.24
2023-05-16T20:03:26.698Z,14.18
2023-05-16T20:05:55.077Z,14.08
2023-05-16T20:08:25.420Z,14.03
2023-05-16T20:10:57.144Z,13.91
2023-05-16T20:13:26.184Z,13.81
2023-05-16T20:15:55.696Z,13.74
2023-05-16T20:18:26.271Z,13.63
2023-05-16T20:20:55.015Z,13.56
2023-05-16T20:23:26.277Z,13.52
2023-05-16T20:25:56.655Z,13.41
2023-05-16T20:28:24.864Z,13.38
2023-05-16T20:30:57.338Z,13.33
2023-05-16T20:33:26.302Z,13.27
2023-05-16T20:35:55.000Z,13.17
2023-05-16T20:38:23.237Z,13.12
2023-05-16T20:40:51.333Z,13.01
2023-05-16T20:43:19.553Z,12.95
2023-05-16T20:45:47.673Z,12.91
2023-05-16T20:48:17.620Z,12.95
2023-05-16T20:50:45.867Z,12.91
2023-05-16T20:53:14.243Z,12.88
2023-05-16T20:55:42.547Z,12.86
2023-05-16T20:58:12.008Z,12.83
2023-05-16T21:00:40.203Z,12.79
2023-05-16T21:03:08.942Z,12.77
2023-05-16T21:05:39.268Z,12.81
2023-05-16T21:08:07.931Z,12.72
2023-05-16T21:10:36.583Z,12.72
2023-05-16T21:13:04.692Z,12.72
2023-05-16T21:15:32.590Z,12.69
2023-05-16T21:18:00.888Z,12.69
2023-05-16T21:20:34.077Z,12.63
2023-05-16T21:23:03.749Z,12.56
2023-05-16T21:25:32.128Z,12.47
2023-05-16T21:28:00.522Z,12.44
2023-05-16T21:30:28.850Z,12.39
2023-05-16T21:32:57.173Z,12.41
2023-05-16T21:35:25.479Z,12.39
2023-05-16T21:37:53.509Z,12.35
2023-05-16T21:40:25.033Z,12.30
2023-05-16T21:42:53.928Z,12.19
2023-05-16T21:45:22.222Z,12.24
2023-05-16T21:47:51.565Z,12.23
2023-05-16T21:50:20.052Z,12.24
2023-05-16T21:52:47.970Z,12.22
2023-05-16T21:55:16.661Z,12.22
2023-05-16T21:57:46.450Z,12.22
2023-05-16T22:00:15.936Z,12.22
2023-05-16T22:02:45.282Z,12.21
2023-05-16T22:05:14.557Z,12.23
2023-05-16T22:07:43.323Z,12.22
2023-05-16T22:10:11.769Z,12.23
2023-05-16T22:12:40.469Z,12.27
2023-05-16T22:15:11.398Z,12.27
2023-05-16T22:17:42.310Z,12.31
2023-05-16T22:20:11.342Z,12.35
2023-05-16T22:22:39.571Z,12.30
2023-05-16T22:25:08.584Z,12.32
2023-05-16T22:27:36.933Z,12.32
2023-05-16T22:30:06.121Z,12.31
2023-05-16T22:32:36.318Z,12.30
2023-05-16T22:35:04.969Z,12.27
2023-05-16T22:37:33.197Z,12.18
2023-05-16T22:40:03.662Z,12.15
2023-05-16T22:42:31.985Z,12.11
2023-05-16T22:45:00.109Z,12.12
2023-05-16T22:47:28.757Z,12.07
2023-05-16T22:49:58.261Z,12.11
2023-05-16T22:52:26.643Z,12.06
2023-05-16T22:54:54.837Z,12.04
2023-05-16T22:57:22.914Z,12.03
2023-05-16T22:59:52.313Z,11.97
2023-05-16T23:02:22.208Z,11.91
2023-05-16T23:04:50.774Z,11.92
2023-05-16T23:07:20.720Z,11.87
2023-05-16T23:09:48.960Z,11.82
2023-05-16T23:12:18.776Z,11.84
2023-05-16T23:14:46.991Z,11.78
2023-05-16T23:17:15.389Z,11.79
2023-05-16T23:19:43.921Z,11.74
2023-05-16T23:22:12.650Z,11.71
2023-05-16T23:24:43.059Z,11.67
2023-05-16T23:27:11.365Z,11.63
2023-05-16T23:29:39.324Z,11.62
2023-05-16T23:32:08.500Z,11.53
2023-05-16T23:34:36.636Z,11.50
2023-05-16T23:37:05.199Z,11.47
2023-05-16T23:39:35.480Z,11.47
2023-05-16T23:42:05.450Z,11.44
2023-05-16T23:44:49.249Z,11.38
2023-05-16T23:47:18.642Z,11.38
2023-05-16T23:49:49.778Z,11.40
2023-05-16T23:52:20.484Z,11.40
2023-05-16T23:54:48.957Z,11.41
2023-05-16T23:57:18.328Z,11.38
2023-05-16T23:59:46.748Z,11.39
